Time;durP1;ratioP1;P1;durP2;ratioP2;P2;SDS_P1;SDS_P2;PMS_P1;PMS_P2;Temp;Humidity;BMP_temperature;BMP_pressure;BME280_temperature;BME280_humidity;BME280_pressure;Samples;Min_cycle;Max_cycle;Signal;HPM_P1;HPM_P2
2022/05/07 00:00:24;;;;;;;4.00;3.80;;;12.30;99.90;;;;;;5061977;28;20205;-65
2022/05/07 00:02:49;;;;;;;4.13;3.93;;;12.30;99.90;;;;;;5052247;28;20175;-64
2022/05/07 00:05:15;;;;;;;4.43;4.23;;;12.30;99.90;;;;;;5059799;28;20539;-65
2022/05/07 00:07:41;;;;;;;3.80;3.70;;;12.30;99.90;;;;;;5072191;28;20257;-65
2022/05/07 00:10:07;;;;;;;3.70;3.60;;;12.30;99.90;;;;;;5065317;28;20210;-65
2022/05/07 00:12:33;;;;;;;4.00;3.90;;;12.20;99.90;;;;;;5052092;28;20262;-65
2022/05/07 00:14:58;;;;;;;4.67;4.47;;;12.10;99.90;;;;;;5055885;28;20699;-65
2022/05/07 00:20:09;;;;;;;4.00;3.90;;;12.00;99.90;;;;;;5066714;28;20706;-65
2022/05/07 00:22:35;;;;;;;4.30;4.10;;;12.00;99.90;;;;;;5052060;28;20603;-65
2022/05/07 00:25:00;;;;;;;4.20;4.03;;;11.90;99.90;;;;;;5053985;28;20214;-64
2022/05/07 00:27:26;;;;;;;4.40;4.20;;;11.90;99.90;;;;;;5072228;28;20657;-64
2022/05/07 00:29:52;;;;;;;3.90;3.80;;;11.90;99.90;;;;;;5069996;28;20256;-65
2022/05/07 00:32:17;;;;;;;4.40;4.20;;;11.80;99.90;;;;;;5051443;28;20219;-65
2022/05/07 00:34:43;;;;;;;4.50;4.30;;;11.90;99.90;;;;;;5051364;28;20217;-65
2022/05/07 00:37:08;;;;;;;5.10;4.90;;;11.90;99.90;;;;;;5051428;28;20261;-65
2022/05/07 00:39:34;;;;;;;4.00;3.90;;;11.80;99.90;;;;;;5050965;28;20214;-65
2022/05/07 00:42:04;;;;;;;4.27;4.07;;;11.80;99.90;;;;;;5069165;28;20672;-65
2022/05/07 00:44:30;;;;;;;5.13;4.93;;;11.80;99.90;;;;;;5071464;28;20179;-66
2022/05/07 00:47:12;;;;;;;4.10;4.00;;;11.80;99.90;;;;;;5070086;28;20559;-64
2022/05/07 00:49:38;;;;;;;4.17;4.00;;;11.70;99.90;;;;;;5071559;28;20190;-64
2022/05/07 00:52:05;;;;;;;3.80;3.70;;;11.70;99.90;;;;;;5069435;28;20189;-65
2022/05/07 00:54:31;;;;;;;5.17;4.97;;;11.70;99.90;;;;;;5071198;28;20190;-63
2022/05/07 00:56:57;;;;;;;4.10;3.90;;;11.70;99.90;;;;;;5059263;28;20177;-64
2022/05/07 00:59:23;;;;;;;3.70;3.60;;;11.70;99.90;;;;;;5070445;28;20198;-64
2022/05/07 01:01:49;;;;;;;4.47;4.27;;;11.70;99.90;;;;;;5071437;28;20200;-65
2022/05/07 01:04:15;;;;;;;4.30;4.10;;;11.70;99.90;;;;;;5071589;28;20181;-65
2022/05/07 01:06:41;;;;;;;3.90;3.80;;;11.60;99.90;;;;;;5070303;28;20182;-63
2022/05/07 01:09:07;;;;;;;3.90;3.80;;;11.60;99.90;;;;;;5071418;28;20578;-65
2022/05/07 01:11:34;;;;;;;4.73;4.53;;;11.60;99.90;;;;;;5061337;28;20672;-63
2022/05/07 01:13:59;;;;;;;3.90;3.77;;;11.70;99.90;;;;;;5051264;28;20186;-64
2022/05/07 01:16:25;;;;;;;4.00;3.90;;;11.70;99.90;;;;;;5058776;28;20587;-63
2022/05/07 01:18:51;;;;;;;3.80;3.70;;;11.60;99.90;;;;;;5071141;28;20581;-64
2022/05/07 01:21:17;;;;;;;4.30;4.10;;;11.60;99.90;;;;;;5064935;28;20240;-63
2022/05/07 01:23:44;;;;;;;3.83;3.73;;;11.60;99.90;;;;;;5051244;28;20182;-63
2022/05/07 01:26:11;;;;;;;4.07;3.90;;;11.60;99.90;;;;;;5054825;28;20544;-65
2022/05/07 01:28:37;;;;;;;4.00;3.90;;;11.60;99.90;;;;;;5071089;28;20194;-65
2022/05/07 01:31:04;;;;;;;4.20;4.00;;;11.60;99.90;;;;;;5067870;28;20258;-64
2022/05/07 01:33:33;;;;;;;4.30;4.10;;;11.50;99.90;;;;;;5051080;28;20163;-64
2022/05/07 01:36:03;;;;;;;4.10;3.90;;;11.60;99.90;;;;;;5051903;28;20171;-64
2022/05/07 01:38:30;;;;;;;3.80;3.70;;;11.50;99.90;;;;;;5070813;28;20665;-65
2022/05/07 01:40:56;;;;;;;4.50;4.30;;;11.50;99.90;;;;;;5070368;28;20200;-65
2022/05/07 01:43:22;;;;;;;3.90;3.80;;;11.50;99.90;;;;;;5069930;28;20263;-65
2022/05/07 01:45:48;;;;;;;3.70;3.60;;;11.50;99.90;;;;;;5067364;28;20567;-64
2022/05/07 01:48:13;;;;;;;4.10;4.00;;;11.50;99.90;;;;;;5054682;28;20202;-65
2022/05/07 01:50:42;;;;;;;4.33;4.13;;;11.40;99.90;;;;;;5059258;28;20690;-65
2022/05/07 01:53:12;;;;;;;4.80;4.60;;;11.40;99.90;;;;;;5072943;28;20269;-66
2022/05/07 01:55:38;;;;;;;4.27;4.07;;;11.40;99.90;;;;;;5070411;28;20179;-64
2022/05/07 01:58:04;;;;;;;4.00;3.90;;;11.40;99.90;;;;;;5054605;28;20197;-65
2022/05/07 02:00:31;;;;;;;3.53;3.43;;;11.30;99.90;;;;;;5056957;28;20197;-65
2022/05/07 02:02:58;;;;;;;4.20;4.00;;;11.30;99.90;;;;;;5074836;28;20215;-65
2022/05/07 02:05:25;;;;;;;3.70;3.60;;;11.30;99.90;;;;;;5072978;28;20201;-65
2022/05/07 02:07:51;;;;;;;4.60;4.40;;;11.20;99.90;;;;;;5054508;28;20209;-65
2022/05/07 02:10:17;;;;;;;4.10;3.93;;;11.20;99.90;;;;;;5055424;28;20257;-65
2022/05/07 02:12:42;;;;;;;3.70;3.60;;;11.10;99.90;;;;;;5054426;28;20629;-65
2022/05/07 02:15:08;;;;;;;3.83;3.73;;;11.10;99.90;;;;;;5061285;28;20186;-65
2022/05/07 02:17:34;;;;;;;4.43;4.27;;;11.10;99.90;;;;;;5074544;28;20623;-64
2022/05/07 02:20:00;;;;;;;3.87;3.77;;;11.10;99.90;;;;;;5068218;28;20189;-64
2022/05/07 02:22:25;;;;;;;3.93;3.83;;;11.10;99.90;;;;;;5054199;28;20181;-65
2022/05/07 02:24:51;;;;;;;3.70;3.60;;;11.10;99.90;;;;;;5057616;28;20671;-64
2022/05/07 02:27:17;;;;;;;3.77;3.67;;;11.10;99.90;;;;;;5072790;28;20311;-63
2022/05/07 02:29:43;;;;;;;4.53;4.33;;;11.10;99.90;;;;;;5071166;28;20768;-64
2022/05/07 02:32:13;;;;;;;4.60;4.30;;;11.10;99.90;;;;;;5053955;28;20182;-65
2022/05/07 02:34:39;;;;;;;4.13;3.93;;;11.10;99.90;;;;;;5054758;28;20191;-64
2022/05/07 02:37:05;;;;;;;5.03;4.83;;;11.00;99.90;;;;;;5033981;28;20208;-64
2022/05/07 02:39:32;;;;;;;4.97;4.77;;;11.00;99.90;;;;;;5034052;28;20292;-64
2022/05/07 02:44:43;;;;;;;3.80;3.70;;;11.00;99.90;;;;;;5072870;28;20212;-63
2022/05/07 02:47:08;;;;;;;4.50;4.30;;;11.10;99.90;;;;;;5053974;28;20183;-64
2022/05/07 02:49:34;;;;;;;4.93;4.73;;;11.00;99.90;;;;;;5053656;28;20205;-64
2022/05/07 02:52:00;;;;;;;4.57;4.37;;;11.00;99.90;;;;;;5072609;28;20178;-63
2022/05/07 02:54:26;;;;;;;4.10;4.00;;;11.00;99.90;;;;;;5073264;28;20643;-65
2022/05/07 02:56:52;;;;;;;4.10;3.90;;;11.00;99.90;;;;;;5055340;28;20178;-63
2022/05/07 02:59:18;;;;;;;4.13;4.00;;;10.90;99.90;;;;;;5052546;28;20203;-63
2022/05/07 03:01:43;;;;;;;3.90;3.80;;;10.90;99.90;;;;;;5068912;28;20190;-66
2022/05/07 03:04:09;;;;;;;3.80;3.70;;;10.90;99.90;;;;;;5061924;28;20225;-64
2022/05/07 03:06:36;;;;;;;4.00;3.90;;;10.90;99.90;;;;;;5053078;28;20185;-66
2022/05/07 03:09:03;;;;;;;4.30;4.10;;;10.90;99.90;;;;;;5062288;28;20285;-65
2022/05/07 03:11:29;;;;;;;4.50;4.30;;;10.90;99.90;;;;;;5073515;28;20205;-64
2022/05/07 03:13:54;;;;;;;3.80;3.70;;;10.90;99.90;;;;;;5065175;28;20628;-64
2022/05/07 03:16:20;;;;;;;3.60;3.50;;;10.90;99.90;;;;;;5053110;28;20174;-64
2022/05/07 03:18:46;;;;;;;4.00;3.90;;;10.80;99.90;;;;;;5059050;28;20190;-65
2022/05/07 03:21:11;;;;;;;4.60;4.40;;;10.70;99.90;;;;;;5073080;28;20175;-65
2022/05/07 03:23:37;;;;;;;4.70;4.50;;;10.80;99.90;;;;;;5067274;28;20175;-63
2022/05/07 03:26:03;;;;;;;4.13;3.93;;;10.80;99.90;;;;;;5052747;28;20240;-63
2022/05/07 03:28:28;;;;;;;4.50;4.30;;;10.80;99.90;;;;;;5055242;28;20203;-64
2022/05/07 03:30:54;;;;;;;4.40;4.20;;;10.80;99.90;;;;;;5073018;28;20283;-65
2022/05/07 03:33:19;;;;;;;4.27;4.07;;;10.80;99.90;;;;;;5054945;28;20236;-65
2022/05/07 03:35:45;;;;;;;4.23;4.03;;;10.80;99.90;;;;;;5058146;28;20269;-64
2022/05/07 03:38:11;;;;;;;4.23;4.07;;;10.70;99.90;;;;;;5073161;28;20301;-66
2022/05/07 03:40:37;;;;;;;4.30;4.10;;;10.70;99.90;;;;;;5069355;28;20178;-66
2022/05/07 03:43:03;;;;;;;4.60;4.40;;;10.70;99.90;;;;;;5053223;28;20632;-65
2022/05/07 03:45:32;;;;;;;4.17;4.03;;;10.70;99.90;;;;;;5065535;28;20192;-66
2022/05/07 03:47:59;;;;;;;4.40;4.20;;;10.60;99.90;;;;;;5073412;28;20252;-66
2022/05/07 03:50:24;;;;;;;4.27;4.07;;;10.60;99.90;;;;;;5062006;28;20228;-65
2022/05/07 03:55:41;;;;;;;3.90;3.80;;;10.60;99.90;;;;;;5065452;28;20662;-66
2022/05/07 03:58:11;;;;;;;4.40;4.20;;;10.60;99.90;;;;;;5073385;28;20484;-67
2022/05/07 04:00:37;;;;;;;5.03;4.73;;;10.60;99.90;;;;;;5061333;28;20210;-66
2022/05/07 04:03:04;;;;;;;4.50;4.30;;;10.70;99.90;;;;;;5053378;28;20175;-65
2022/05/07 04:05:29;;;;;;;4.50;4.30;;;10.70;99.90;;;;;;5033139;28;20182;-66
2022/05/07 04:07:55;;;;;;;4.47;4.27;;;10.60;99.90;;;;;;5032190;28;20571;-66
2022/05/07 04:10:21;;;;;;;3.80;3.70;;;10.70;99.90;;;;;;5069943;28;20209;-66
2022/05/07 04:12:48;;;;;;;4.87;4.57;;;10.70;99.90;;;;;;5072910;28;20569;-67
2022/05/07 04:15:14;;;;;;;4.37;4.17;;;10.80;99.90;;;;;;5055548;28;20183;-65
2022/05/07 04:17:40;;;;;;;4.30;4.10;;;10.70;99.90;;;;;;5053111;28;20199;-66
2022/05/07 04:20:06;;;;;;;4.10;4.00;;;10.80;99.90;;;;;;5067875;28;20174;-66
2022/05/07 04:22:32;;;;;;;4.60;4.40;;;10.80;99.90;;;;;;5072962;28;20233;-67
2022/05/07 04:24:58;;;;;;;4.57;4.37;;;10.90;99.90;;;;;;5058512;28;20217;-65
2022/05/07 04:27:23;;;;;;;4.50;4.30;;;10.90;99.90;;;;;;5052646;28;20601;-66
2022/05/07 04:29:49;;;;;;;4.07;3.93;;;11.00;99.90;;;;;;5053615;28;20194;-67
2022/05/07 04:32:14;;;;;;;3.80;3.70;;;11.00;99.90;;;;;;5052343;28;20179;-68
2022/05/07 04:34:40;;;;;;;4.33;4.13;;;11.10;99.90;;;;;;5061886;28;20186;-67
2022/05/07 04:37:06;;;;;;;3.90;3.80;;;11.10;99.90;;;;;;5072428;28;20692;-65
2022/05/07 04:39:34;;;;;;;4.37;4.17;;;11.30;99.90;;;;;;5063673;28;20214;-66
2022/05/07 04:42:00;;;;;;;4.83;4.53;;;11.40;99.90;;;;;;5052362;28;20170;-68
2022/05/07 04:44:26;;;;;;;3.90;3.80;;;11.40;99.90;;;;;;5059163;28;20198;-66
2022/05/07 04:46:52;;;;;;;3.83;3.73;;;11.50;99.90;;;;;;5071926;28;20182;-67
2022/05/07 04:49:22;;;;;;;3.70;3.60;;;11.50;99.90;;;;;;5065295;28;20202;-67
2022/05/07 04:51:50;;;;;;;4.30;4.10;;;11.60;99.90;;;;;;5052579;28;20201;-67
2022/05/07 04:54:17;;;;;;;3.70;3.60;;;11.70;99.90;;;;;;5056435;28;20217;-67
2022/05/07 04:56:43;;;;;;;3.93;3.73;;;11.80;99.90;;;;;;5071212;28;20166;-67
2022/05/07 04:59:08;;;;;;;3.70;3.60;;;12.00;99.90;;;;;;5051902;28;20511;-66
2022/05/07 05:01:34;;;;;;;5.03;4.63;;;12.20;99.90;;;;;;5051144;28;20224;-67
2022/05/07 05:03:59;;;;;;;3.80;3.70;;;12.30;99.90;;;;;;5065237;28;20178;-67
2022/05/07 05:06:25;;;;;;;4.10;3.90;;;12.40;99.90;;;;;;5070957;28;20174;-67
2022/05/07 05:08:52;;;;;;;3.80;3.70;;;12.50;99.90;;;;;;5071962;28;20194;-66
2022/05/07 05:11:17;;;;;;;4.23;4.03;;;12.60;99.90;;;;;;5071037;28;20217;-66
2022/05/07 05:13:43;;;;;;;4.43;4.23;;;12.70;99.90;;;;;;5071884;28;20627;-66
2022/05/07 05:16:09;;;;;;;3.70;3.60;;;12.80;99.90;;;;;;5057479;28;20189;-65
2022/05/07 05:18:34;;;;;;;3.80;3.70;;;12.80;99.90;;;;;;5051566;28;20217;-66
2022/05/07 05:21:00;;;;;;;4.00;3.90;;;12.90;99.90;;;;;;5063753;28;20186;-66
2022/05/07 05:23:25;;;;;;;3.83;3.73;;;13.00;99.90;;;;;;5071812;28;20624;-66
2022/05/07 05:25:51;;;;;;;4.30;4.10;;;13.20;99.90;;;;;;5069815;28;20186;-65
2022/05/07 05:28:17;;;;;;;4.53;4.33;;;13.30;99.90;;;;;;5072134;28;20204;-66
2022/05/07 05:30:42;;;;;;;4.30;4.10;;;13.50;99.90;;;;;;5063519;28;20217;-66
2022/05/07 05:33:08;;;;;;;4.50;4.30;;;13.70;99.90;;;;;;5051507;28;20220;-66
2022/05/07 05:35:34;;;;;;;3.93;3.73;;;13.70;99.90;;;;;;5058020;28;20257;-66
2022/05/07 05:37:59;;;;;;;4.03;3.93;;;13.70;99.90;;;;;;5071677;28;20302;-67
2022/05/07 05:40:25;;;;;;;4.70;4.50;;;13.70;99.90;;;;;;5066632;28;20225;-66
2022/05/07 05:42:50;;;;;;;4.77;4.57;;;13.70;99.90;;;;;;5051655;28;20201;-66
2022/05/07 05:45:17;;;;;;;4.03;3.93;;;13.80;99.90;;;;;;5067570;28;20674;-66
2022/05/07 05:47:42;;;;;;;3.53;3.43;;;13.90;99.90;;;;;;5072424;28;20679;-66
2022/05/07 05:50:08;;;;;;;3.40;3.30;;;14.10;99.90;;;;;;5057865;28;20294;-66
2022/05/07 05:52:34;;;;;;;3.87;3.77;;;14.30;99.90;;;;;;5052638;28;20743;-66
2022/05/07 05:55:00;;;;;;;4.43;4.23;;;14.40;99.90;;;;;;5071685;28;20184;-65
2022/05/07 05:57:26;;;;;;;5.30;5.00;;;14.60;99.90;;;;;;5072091;28;20536;-66
2022/05/07 05:59:52;;;;;;;3.70;3.60;;;14.70;99.90;;;;;;5052908;28;20203;-65
2022/05/07 06:02:18;;;;;;;3.80;3.70;;;14.90;99.90;;;;;;5050479;28;20240;-66
2022/05/07 06:04:44;;;;;;;3.90;3.80;;;15.10;99.90;;;;;;5068106;28;20242;-66
2022/05/07 06:07:09;;;;;;;4.17;3.97;;;15.40;99.90;;;;;;5072295;28;20266;-66
2022/05/07 06:09:35;;;;;;;3.67;3.57;;;15.80;99.90;;;;;;5056467;28;20726;-66
2022/05/07 06:12:01;;;;;;;3.50;3.40;;;16.20;99.90;;;;;;5052285;28;20229;-66
2022/05/07 06:14:26;;;;;;;4.27;3.87;;;16.60;99.90;;;;;;5052407;28;20637;-63
2022/05/07 06:16:52;;;;;;;3.10;3.00;;;17.00;99.90;;;;;;5051882;28;20186;-65
2022/05/07 06:19:18;;;;;;;3.40;3.30;;;17.40;99.90;;;;;;5051806;28;20701;-66
2022/05/07 06:21:45;;;;;;;3.60;3.50;;;17.70;99.90;;;;;;5051371;28;20190;-66
2022/05/07 06:29:38;;;;;;;3.83;3.73;;;18.60;99.90;;;;;;5065013;28;20229;-65
2022/05/07 06:32:04;;;;;;;3.67;3.57;;;18.90;99.90;;;;;;5075200;28;20214;-66
2022/05/07 06:34:30;;;;;;;5.70;5.50;;;19.10;99.90;;;;;;5063741;28;20183;-66
2022/05/07 06:36:57;;;;;;;12.30;11.80;;;19.30;99.90;;;;;;5063197;28;20227;-66
2022/05/07 06:39:24;;;;;;;49.25;47.28;;;19.50;99.90;;;;;;5075919;28;20202;-65
2022/05/07 06:41:51;;;;;;;11.77;11.30;;;19.70;99.90;;;;;;5069332;28;20201;-65
2022/05/07 06:44:17;;;;;;;9.97;9.57;;;19.80;99.90;;;;;;5055035;28;20210;-66
2022/05/07 06:46:44;;;;;;;12.97;12.47;;;19.70;99.90;;;;;;5058168;28;20708;-66
2022/05/07 06:49:10;;;;;;;7.53;7.23;;;19.80;99.90;;;;;;5074384;28;20544;-66
2022/05/07 06:51:36;;;;;;;4.37;4.17;;;20.00;99.90;;;;;;5072186;28;21435;-67
2022/05/07 06:54:01;;;;;;;6.17;5.87;;;19.90;99.90;;;;;;5055297;28;20232;-66
2022/05/07 06:56:27;;;;;;;5.47;5.27;;;19.80;99.90;;;;;;5054900;28;20179;-66
2022/05/07 06:58:52;;;;;;;2.80;2.70;;;19.90;99.90;;;;;;5075673;28;20559;-66
2022/05/07 07:01:18;;;;;;;4.87;4.70;;;20.10;99.90;;;;;;5065912;28;20244;-66
2022/05/07 07:03:44;;;;;;;5.83;5.33;;;19.90;99.90;;;;;;5054455;28;20187;-66
2022/05/07 07:06:09;;;;;;;3.97;3.77;;;19.70;99.90;;;;;;5061417;28;20186;-65
2022/05/07 07:08:35;;;;;;;9.47;9.00;;;19.70;99.90;;;;;;5075247;28;20194;-66
2022/05/07 07:11:00;;;;;;;8.40;8.07;;;19.90;99.90;;;;;;5068459;28;20210;-66
2022/05/07 07:13:26;;;;;;;3.03;2.92;;;20.20;99.90;;;;;;5055116;28;20186;-66
2022/05/07 07:15:52;;;;;;;4.27;4.07;;;20.30;99.90;;;;;;5068198;28;20182;-67
2022/05/07 07:18:17;;;;;;;2.30;2.20;;;20.30;99.90;;;;;;5074674;28;20484;-67
2022/05/07 07:20:44;;;;;;;4.53;4.32;;;20.50;99.90;;;;;;5063419;28;20194;-66
2022/05/07 07:23:11;;;;;;;2.90;2.80;;;20.70;99.90;;;;;;5055396;28;20209;-67
2022/05/07 07:25:41;;;;;;;3.60;3.40;;;21.20;99.90;;;;;;5064834;28;20186;-66
2022/05/07 07:28:10;;;;;;;3.60;3.30;;;21.40;99.90;;;;;;5075838;28;20193;-65
2022/05/07 07:30:37;;;;;;;2.30;2.20;;;21.90;99.90;;;;;;5065704;28;20202;-67
2022/05/07 07:33:03;;;;;;;3.15;3.00;;;22.30;99.90;;;;;;5055500;28;20182;-66
2022/05/07 07:35:29;;;;;;;2.45;2.35;;;22.90;99.90;;;;;;5056527;28;20167;-67
2022/05/07 07:37:54;;;;;;;3.17;3.08;;;23.40;99.90;;;;;;5054123;28;20714;-67
2022/05/07 07:40:20;;;;;;;2.85;2.65;;;23.70;99.90;;;;;;5056485;28;20179;-67
2022/05/07 07:42:46;;;;;;;2.67;2.58;;;24.00;99.90;;;;;;5055038;28;20170;-67
2022/05/07 07:48:03;;;;;;;3.45;3.30;;;24.50;99.90;;;;;;5053031;28;20205;-67
2022/05/07 07:50:31;;;;;;;2.20;2.10;;;24.90;99.90;;;;;;5051799;28;20293;-67
2022/05/07 07:52:59;;;;;;;2.75;2.58;;;25.30;99.90;;;;;;5052970;28;20163;-67
2022/05/07 07:55:25;;;;;;;2.38;2.28;;;25.30;99.90;;;;;;5052738;28;20187;-67
2022/05/07 07:57:56;;;;;;;2.58;2.47;;;25.10;99.90;;;;;;5058280;28;20166;-66
2022/05/07 08:00:23;;;;;;;2.47;2.38;;;25.50;99.90;;;;;;5060410;28;20721;-67
2022/05/07 08:02:55;;;;;;;3.05;2.95;;;25.80;99.90;;;;;;5061585;28;20187;-67
2022/05/07 08:05:26;;;;;;;3.30;3.05;;;25.90;99.90;;;;;;5053376;28;20170;-67
2022/05/07 08:13:22;;;;;;;2.42;2.33;;;26.80;99.90;;;;;;5053610;28;20178;-67
2022/05/07 08:15:48;;;;;;;2.78;2.58;;;27.30;99.90;;;;;;5054740;28;20183;-68
2022/05/07 08:18:14;;;;;;;2.72;2.63;;;27.30;99.90;;;;;;5072613;28;20204;-67
2022/05/07 08:20:43;;;;;;;2.65;2.45;;;27.50;99.90;;;;;;5073058;28;20182;-67
2022/05/07 08:23:10;;;;;;;2.30;2.20;;;27.50;99.90;;;;;;5054408;28;20710;-67
2022/05/07 08:25:37;;;;;;;2.35;2.17;;;27.80;99.90;;;;;;5052603;28;20182;-66
2022/05/07 08:28:03;;;;;;;2.10;2.00;;;28.20;99.90;;;;;;5051730;28;20256;-66
2022/05/07 08:30:30;;;;;;;2.63;2.42;;;28.50;99.90;;;;;;5052593;28;20202;-67
2022/05/07 08:32:56;;;;;;;1.95;1.85;;;28.60;99.90;;;;;;5063759;28;20530;-68
2022/05/07 08:35:22;;;;;;;2.25;2.05;;;28.70;99.90;;;;;;5072437;28;20253;-66
2022/05/07 08:37:48;;;;;;;2.50;2.40;;;28.70;99.90;;;;;;5071547;28;20320;-67
2022/05/07 08:40:16;;;;;;;2.55;2.45;;;28.60;99.90;;;;;;5072249;28;20189;-67
2022/05/07 08:42:42;;;;;;;3.22;2.97;;;28.90;99.90;;;;;;5058056;28;20182;-68
2022/05/07 08:45:09;;;;;;;2.10;2.00;;;29.00;99.90;;;;;;5051796;28;20262;-67
2022/05/07 08:47:34;;;;;;;1.92;1.83;;;28.80;99.20;;;;;;5065166;28;20178;-66
2022/05/07 08:50:00;;;;;;;2.00;1.90;;;28.90;99.30;;;;;;5072262;28;20567;-67
2022/05/07 08:52:28;;;;;;;2.90;2.70;;;29.10;99.00;;;;;;5060482;28;20197;-67
2022/05/07 08:54:54;;;;;;;2.60;2.50;;;29.00;99.90;;;;;;5051687;28;20189;-64
2022/05/07 08:57:19;;;;;;;2.33;2.22;;;29.10;98.00;;;;;;5061189;28;20257;-67
2022/05/07 08:59:51;;;;;;;2.10;2.00;;;29.10;97.60;;;;;;5071930;28;20190;-67
2022/05/07 09:02:17;;;;;;;2.00;1.90;;;29.20;97.30;;;;;;5070384;28;20170;-66
2022/05/07 09:04:56;;;;;;;2.15;2.05;;;28.80;97.20;;;;;;5072074;28;20662;-67
2022/05/07 09:07:22;;;;;;;2.80;2.65;;;28.30;97.90;;;;;;5066679;28;20171;-67
2022/05/07 09:09:49;;;;;;;2.33;2.22;;;28.30;97.40;;;;;;5065064;28;20202;-67
2022/05/07 09:12:25;;;;;;;2.88;2.78;;;28.30;96.50;;;;;;5059706;28;20592;-67
2022/05/07 09:14:51;;;;;;;2.70;2.50;;;28.40;99.70;;;;;;5052122;28;20178;-67
2022/05/07 09:17:20;;;;;;;2.15;2.05;;;28.50;97.60;;;;;;5052259;28;20974;-67
2022/05/07 09:19:45;;;;;;;2.45;2.35;;;28.70;98.10;;;;;;5051961;28;20194;-67
2022/05/07 09:22:11;;;;;;;2.47;2.10;;;28.60;97.30;;;;;;5057034;28;20185;-66
2022/05/07 09:24:38;;;;;;;2.90;2.70;;;28.70;96.60;;;;;;5072221;28;20659;-67
2022/05/07 09:27:04;;;;;;;2.45;2.33;;;28.70;95.40;;;;;;5068219;28;20174;-67
2022/05/07 09:29:31;;;;;;;2.30;2.20;;;28.70;97.30;;;;;;5051999;28;20285;-67
2022/05/07 09:32:13;;;;;;;1.88;1.77;;;29.00;96.10;;;;;;5071608;28;20300;-67
2022/05/07 09:37:35;;;;;;;2.38;2.28;;;29.10;95.70;;;;;;5052074;28;20193;-67
2022/05/07 09:40:08;;;;;;;1.90;1.80;;;29.40;95.80;;;;;;5054776;28;20187;-66
2022/05/07 09:42:34;;;;;;;2.10;2.00;;;30.00;95.10;;;;;;5071297;28;20224;-66
2022/05/07 09:45:03;;;;;;;2.67;2.45;;;30.50;95.20;;;;;;5051939;28;20178;-66
2022/05/07 09:47:30;;;;;;;2.08;1.83;;;30.30;94.80;;;;;;5051277;28;20583;-64
2022/05/07 09:58:12;;;;;;;1.90;1.80;;;31.00;93.50;;;;;;5037467;28;20203;-66
2022/05/07 10:00:49;;;;;;;2.45;2.35;;;31.40;94.30;;;;;;5051182;28;20167;-66
2022/05/07 10:03:47;;;;;;;2.50;2.40;;;30.90;91.40;;;;;;5061973;28;20182;-67
2022/05/07 10:06:41;;;;;;;1.80;1.70;;;30.40;93.70;;;;;;5069096;28;20193;-64
2022/05/07 10:09:23;;;;;;;2.00;1.90;;;30.40;91.20;;;;;;5054585;28;20205;-66
2022/05/07 10:11:56;;;;;;;2.03;1.92;;;30.80;92.90;;;;;;5055120;28;20691;-63
2022/05/07 10:14:26;;;;;;;2.00;1.90;;;31.10;91.30;;;;;;5035599;28;20518;-67
2022/05/07 10:17:08;;;;;;;2.92;2.65;;;31.30;92.50;;;;;;5035065;28;20160;-67
2022/05/07 10:19:43;;;;;;;2.20;2.10;;;31.70;91.00;;;;;;5035195;28;20202;-67
2022/05/07 10:22:17;;;;;;;2.05;1.95;;;31.70;91.30;;;;;;5037045;28;20169;-66
2022/05/07 10:24:43;;;;;;;2.22;2.13;;;31.10;90.40;;;;;;5074980;28;20189;-67
2022/05/07 10:27:42;;;;;;;2.22;2.13;;;30.40;90.20;;;;;;5061764;28;20209;-65
2022/05/07 10:30:15;;;;;;;6.93;3.17;;;30.50;90.60;;;;;;5031854;28;20190;-67
2022/05/07 10:32:59;;;;;;;2.00;1.90;;;30.70;90.90;;;;;;5071108;28;20202;-68
2022/05/07 10:35:44;;;;;;;2.30;2.20;;;31.10;90.70;;;;;;5073941;28;20223;-67
2022/05/07 10:38:27;;;;;;;2.03;1.92;;;31.40;90.30;;;;;;5073750;28;20618;-66
2022/05/07 10:41:09;;;;;;;2.65;2.55;;;31.50;89.50;;;;;;5073971;28;20170;-67
2022/05/07 10:43:46;;;;;;;3.13;2.92;;;31.30;89.60;;;;;;5054637;28;20175;-66
2022/05/07 10:46:19;;;;;;;2.72;2.63;;;30.90;90.20;;;;;;5055838;28;20177;-67
2022/05/07 10:49:02;;;;;;;2.20;2.10;;;30.50;90.20;;;;;;5074240;28;20201;-67
2022/05/07 10:51:34;;;;;;;2.45;2.35;;;30.40;91.80;;;;;;5072277;28;20719;-66
2022/05/07 10:54:03;;;;;;;2.30;2.20;;;30.00;91.20;;;;;;5074331;28;20162;-68
2022/05/07 10:56:33;;;;;;;2.92;2.72;;;29.20;91.10;;;;;;5071228;28;20221;-67
2022/05/07 10:59:00;;;;;;;2.25;2.15;;;29.00;92.00;;;;;;5054632;28;20187;-66
2022/05/07 11:01:27;;;;;;;2.60;2.50;;;29.10;91.30;;;;;;5055070;28;20246;-67
2022/05/07 11:04:04;;;;;;;1.92;1.83;;;29.50;91.30;;;;;;5073776;28;20666;-66
2022/05/07 11:06:39;;;;;;;2.22;2.13;;;29.50;92.20;;;;;;5071432;28;20595;-68
2022/05/07 11:09:05;;;;;;;2.75;2.55;;;29.40;91.80;;;;;;5054122;28;20558;-67
2022/05/07 11:11:30;;;;;;;6.47;2.53;;;29.40;93.00;;;;;;5054845;28;20194;-66
2022/05/07 11:13:56;;;;;;;3.83;3.05;;;30.20;95.50;;;;;;5074049;28;20699;-66
2022/05/07 11:16:23;;;;;;;2.30;2.20;;;30.80;91.30;;;;;;5073004;28;20174;-67
2022/05/07 11:18:53;;;;;;;2.50;2.40;;;30.80;91.20;;;;;;5072497;28;20207;-67
2022/05/07 11:21:23;;;;;;;2.78;2.67;;;30.50;89.40;;;;;;5056454;28;20179;-67
2022/05/07 11:23:56;;;;;;;2.22;2.13;;;29.80;90.50;;;;;;5054128;28;20651;-66
2022/05/07 11:26:23;;;;;;;2.75;2.50;;;29.30;90.90;;;;;;5070626;28;20217;-67
2022/05/07 11:28:50;;;;;;;1.92;1.83;;;28.90;92.50;;;;;;5074335;28;20200;-66
2022/05/07 11:31:28;;;;;;;2.50;2.40;;;28.80;90.80;;;;;;5072520;28;20208;-67
2022/05/07 11:34:04;;;;;;;3.30;3.20;;;28.30;91.70;;;;;;5074017;28;20166;-67
2022/05/07 11:36:30;;;;;;;3.38;3.17;;;27.80;91.40;;;;;;5072769;28;20173;-67
2022/05/07 11:39:15;;;;;;;2.60;2.50;;;27.50;91.70;;;;;;5073812;28;20205;-67
2022/05/07 11:41:41;;;;;;;2.53;2.42;;;27.60;93.30;;;;;;5056716;28;20703;-67
2022/05/07 11:46:56;;;;;;;3.25;3.05;;;27.50;93.50;;;;;;5073530;28;20185;-67
2022/05/07 11:49:33;;;;;;;3.28;3.08;;;27.80;94.70;;;;;;5055641;28;20205;-67
2022/05/07 11:52:09;;;;;;;2.72;2.63;;;27.80;92.20;;;;;;5053956;28;20668;-67
2022/05/07 11:54:36;;;;;;;4.00;2.80;;;27.80;92.70;;;;;;5072101;28;20186;-68
2022/05/07 11:57:01;;;;;;;6.55;3.75;;;27.80;91.60;;;;;;5073673;28;20166;-68
2022/05/07 11:59:27;;;;;;;3.22;3.10;;;27.60;91.30;;;;;;5056187;28;20859;-67
2022/05/07 12:01:53;;;;;;;3.05;2.78;;;27.20;92.20;;;;;;5053855;28;20178;-67
2022/05/07 12:04:18;;;;;;;3.22;3.03;;;26.90;93.10;;;;;;5068867;28;20189;-66
2022/05/07 12:06:55;;;;;;;2.58;2.47;;;26.50;92.80;;;;;;5073975;28;20181;-67
2022/05/07 12:09:21;;;;;;;2.30;2.20;;;26.10;93.10;;;;;;5058849;28;20245;-67
2022/05/07 12:11:47;;;;;;;3.33;3.13;;;26.00;94.50;;;;;;5054335;28;20229;-67
2022/05/07 12:14:12;;;;;;;4.35;4.15;;;26.00;94.00;;;;;;5055230;28;20182;-66
2022/05/07 12:19:30;;;;;;;3.35;3.25;;;26.20;96.10;;;;;;5068202;28;20221;-67
2022/05/07 12:30:09;;;;;;;3.60;3.50;;;26.30;93.50;;;;;;5068490;28;20185;-66
2022/05/07 12:32:35;;;;;;;4.63;3.67;;;26.50;94.00;;;;;;5074279;28;20521;-67
2022/05/07 12:35:00;;;;;;;4.38;4.18;;;26.60;95.50;;;;;;5055137;28;20181;-67
2022/05/07 12:37:26;;;;;;;3.08;2.97;;;26.60;93.40;;;;;;5053797;28;20178;-67
2022/05/07 12:39:51;;;;;;;4.05;3.78;;;26.30;95.50;;;;;;5070838;28;20209;-66
2022/05/07 12:42:18;;;;;;;2.90;2.67;;;26.30;94.80;;;;;;5062227;28;20190;-66
2022/05/07 12:44:44;;;;;;;2.78;2.67;;;25.90;94.50;;;;;;5056389;28;20731;-66
2022/05/07 12:47:10;;;;;;;2.95;2.85;;;25.80;94.50;;;;;;5074267;28;20174;-66
2022/05/07 12:49:36;;;;;;;2.65;2.55;;;25.80;94.30;;;;;;5069619;28;20206;-67
2022/05/07 12:52:03;;;;;;;3.03;2.92;;;25.70;95.30;;;;;;5053011;28;20203;-67
2022/05/07 12:54:30;;;;;;;3.08;2.95;;;25.70;93.60;;;;;;5056236;28;20534;-64
2022/05/07 12:56:55;;;;;;;2.97;2.83;;;25.90;95.10;;;;;;5074280;28;20541;-66
2022/05/07 12:59:21;;;;;;;2.30;2.20;;;26.20;94.60;;;;;;5064389;28;20201;-66
2022/05/07 13:01:47;;;;;;;4.30;3.55;;;26.30;95.50;;;;;;5061745;28;20178;-66
2022/05/07 13:04:13;;;;;;;2.42;2.33;;;26.30;96.20;;;;;;5072890;28;20204;-66
2022/05/07 13:06:39;;;;;;;2.35;2.25;;;26.40;93.90;;;;;;5073473;28;20178;-67
2022/05/07 13:09:04;;;;;;;2.55;2.45;;;26.30;93.80;;;;;;5073616;28;20208;-67
2022/05/07 13:11:30;;;;;;;9.75;3.95;;;26.10;93.40;;;;;;5072935;28;20206;-67
2022/05/07 13:13:56;;;;;;;2.60;2.50;;;26.00;93.40;;;;;;5073934;28;20252;-66
2022/05/07 13:16:22;;;;;;;2.00;1.90;;;25.90;93.60;;;;;;5074113;28;20181;-67
2022/05/07 13:18:48;;;;;;;2.85;2.75;;;25.80;93.80;;;;;;5073329;28;20186;-66
2022/05/07 13:21:13;;;;;;;6.32;2.78;;;25.80;93.10;;;;;;5072942;28;20162;-67
2022/05/07 13:23:39;;;;;;;2.65;2.55;;;25.90;95.00;;;;;;5073247;28;20174;-66
2022/05/07 13:26:05;;;;;;;2.80;2.70;;;26.00;95.00;;;;;;5072364;28;20170;-67
2022/05/07 13:28:31;;;;;;;2.38;2.28;;;26.30;91.50;;;;;;5073248;28;20605;-67
2022/05/07 13:30:58;;;;;;;2.80;2.70;;;26.50;93.10;;;;;;5072122;28;20212;-67
2022/05/07 13:33:24;;;;;;;4.10;3.90;;;26.70;93.30;;;;;;5071750;28;20631;-67